sensor_id;sensor_type;location;lat;lon;timestamp;temperature;humidity
84276;DHT22;74432;51.212;3.254;2023-12-20T00:01:05;8.70;80.10
84276;DHT22;74432;51.212;3.254;2023-12-20T00:03:31;8.70;80.10
84276;DHT22;74432;51.212;3.254;2023-12-20T00:05:57;8.70;80.10
84276;DHT22;74432;51.212;3.254;2023-12-20T00:08:22;8.70;79.20
84276;DHT22;74432;51.212;3.254;2023-12-20T00:10:48;8.60;78.30
84276;DHT22;74432;51.212;3.254;2023-12-20T00:13:14;8.50;79.70
84276;DHT22;74432;51.212;3.254;2023-12-20T00:15:39;8.40;79.80
84276;DHT22;74432;51.212;3.254;2023-12-20T00:18:05;8.50;79.20
84276;DHT22;74432;51.212;3.254;2023-12-20T00:20:31;8.40;81.00
84276;DHT22;74432;51.212;3.254;2023-12-20T00:22:57;8.40;81.40
84276;DHT22;74432;51.212;3.254;2023-12-20T00:25:23;8.50;81.00
84276;DHT22;74432;51.212;3.254;2023-12-20T00:27:49;8.60;81.10
84276;DHT22;74432;51.212;3.254;2023-12-20T00:30:15;8.60;81.20
84276;DHT22;74432;51.212;3.254;2023-12-20T00:32:41;8.70;81.20
84276;DHT22;74432;51.212;3.254;2023-12-20T00:35:18;8.70;80.80
84276;DHT22;74432;51.212;3.254;2023-12-20T00:37:44;8.70;81.00
84276;DHT22;74432;51.212;3.254;2023-12-20T00:40:10;8.70;80.30
84276;DHT22;74432;51.212;3.254;2023-12-20T00:42:36;8.60;81.20
84276;DHT22;74432;51.212;3.254;2023-12-20T00:45:02;8.50;80.80
84276;DHT22;74432;51.212;3.254;2023-12-20T00:47:28;8.60;81.20
84276;DHT22;74432;51.212;3.254;2023-12-20T00:49:53;8.60;80.80
84276;DHT22;74432;51.212;3.254;2023-12-20T00:52:19;8.60;80.70
84276;DHT22;74432;51.212;3.254;2023-12-20T00:54:45;8.60;81.20
84276;DHT22;74432;51.212;3.254;2023-12-20T00:57:11;8.60;80.80
84276;DHT22;74432;51.212;3.254;2023-12-20T00:59:37;8.60;81.70
84276;DHT22;74432;51.212;3.254;2023-12-20T01:02:02;8.60;82.10
84276;DHT22;74432;51.212;3.254;2023-12-20T01:04:28;8.50;82.10
84276;DHT22;74432;51.212;3.254;2023-12-20T01:06:54;8.50;82.60
84276;DHT22;74432;51.212;3.254;2023-12-20T01:09:19;8.50;82.90
84276;DHT22;74432;51.212;3.254;2023-12-20T01:11:45;8.60;81.40
84276;DHT22;74432;51.212;3.254;2023-12-20T01:14:14;8.60;80.90
84276;DHT22;74432;51.212;3.254;2023-12-20T01:16:39;8.70;80.20
84276;DHT22;74432;51.212;3.254;2023-12-20T01:19:05;8.70;80.40
84276;DHT22;74432;51.212;3.254;2023-12-20T01:21:30;8.80;80.90
84276;DHT22;74432;51.212;3.254;2023-12-20T01:23:56;8.70;80.40
84276;DHT22;74432;51.212;3.254;2023-12-20T01:26:22;8.70;80.10
84276;DHT22;74432;51.212;3.254;2023-12-20T01:28:47;8.70;81.00
84276;DHT22;74432;51.212;3.254;2023-12-20T01:31:13;8.70;80.30
84276;DHT22;74432;51.212;3.254;2023-12-20T01:33:39;8.70;81.20
84276;DHT22;74432;51.212;3.254;2023-12-20T01:36:04;8.70;80.50
84276;DHT22;74432;51.212;3.254;2023-12-20T01:38:30;8.70;79.90
84276;DHT22;74432;51.212;3.254;2023-12-20T01:40:56;8.70;80.60
84276;DHT22;74432;51.212;3.254;2023-12-20T01:43:21;8.60;80.50
84276;DHT22;74432;51.212;3.254;2023-12-20T01:45:47;8.70;80.30
84276;DHT22;74432;51.212;3.254;2023-12-20T01:48:15;8.60;80.30
84276;DHT22;74432;51.212;3.254;2023-12-20T01:50:41;8.60;81.10
84276;DHT22;74432;51.212;3.254;2023-12-20T01:53:10;8.60;81.80
84276;DHT22;74432;51.212;3.254;2023-12-20T01:55:39;8.50;81.90
84276;DHT22;74432;51.212;3.254;2023-12-20T01:58:09;8.50;81.70
84276;DHT22;74432;51.212;3.254;2023-12-20T02:00:36;8.60;80.10
84276;DHT22;74432;51.212;3.254;2023-12-20T02:03:03;8.60;79.60
84276;DHT22;74432;51.212;3.254;2023-12-20T02:05:33;8.60;80.10
84276;DHT22;74432;51.212;3.254;2023-12-20T02:07:59;8.60;81.10
84276;DHT22;74432;51.212;3.254;2023-12-20T02:10:25;8.50;80.40
84276;DHT22;74432;51.212;3.254;2023-12-20T02:12:51;8.60;80.90
84276;DHT22;74432;51.212;3.254;2023-12-20T02:15:17;8.50;80.30
84276;DHT22;74432;51.212;3.254;2023-12-20T02:17:43;8.60;79.70
84276;DHT22;74432;51.212;3.254;2023-12-20T02:20:10;8.60;79.90
84276;DHT22;74432;51.212;3.254;2023-12-20T02:22:36;8.60;79.90
84276;DHT22;74432;51.212;3.254;2023-12-20T02:25:02;8.60;80.20
84276;DHT22;74432;51.212;3.254;2023-12-20T02:27:28;8.70;79.70
84276;DHT22;74432;51.212;3.254;2023-12-20T02:29:54;8.60;79.80
84276;DHT22;74432;51.212;3.254;2023-12-20T02:32:20;8.70;79.50
84276;DHT22;74432;51.212;3.254;2023-12-20T02:34:48;8.60;79.70
84276;DHT22;74432;51.212;3.254;2023-12-20T02:37:13;8.70;79.20
84276;DHT22;74432;51.212;3.254;2023-12-20T02:39:39;8.60;79.70
84276;DHT22;74432;51.212;3.254;2023-12-20T02:42:05;8.60;79.70
84276;DHT22;74432;51.212;3.254;2023-12-20T02:44:30;8.60;79.60
84276;DHT22;74432;51.212;3.254;2023-12-20T02:46:56;8.60;80.10
84276;DHT22;74432;51.212;3.254;2023-12-20T02:49:24;8.50;80.30
84276;DHT22;74432;51.212;3.254;2023-12-20T02:51:50;8.50;80.00
84276;DHT22;74432;51.212;3.254;2023-12-20T02:54:15;8.50;80.20
84276;DHT22;74432;51.212;3.254;2023-12-20T02:56:41;8.50;79.90
84276;DHT22;74432;51.212;3.254;2023-12-20T02:59:07;8.50;80.00
84276;DHT22;74432;51.212;3.254;2023-12-20T03:01:34;8.40;79.30
84276;DHT22;74432;51.212;3.254;2023-12-20T03:04:00;8.50;80.00
84276;DHT22;74432;51.212;3.254;2023-12-20T03:06:26;8.50;80.10
84276;DHT22;74432;51.212;3.254;2023-12-20T03:08:51;8.50;80.40
84276;DHT22;74432;51.212;3.254;2023-12-20T03:11:17;8.60;80.50
84276;DHT22;74432;51.212;3.254;2023-12-20T03:13:43;8.60;79.90
84276;DHT22;74432;51.212;3.254;2023-12-20T03:16:12;8.60;80.00
84276;DHT22;74432;51.212;3.254;2023-12-20T03:18:38;8.50;80.20
84276;DHT22;74432;51.212;3.254;2023-12-20T03:21:04;8.60;80.30
84276;DHT22;74432;51.212;3.254;2023-12-20T03:23:30;8.70;80.10
84276;DHT22;74432;51.212;3.254;2023-12-20T03:25:58;8.70;80.00
84276;DHT22;74432;51.212;3.254;2023-12-20T03:28:23;8.60;80.20
84276;DHT22;74432;51.212;3.254;2023-12-20T03:30:50;8.60;81.20
84276;DHT22;74432;51.212;3.254;2023-12-20T03:33:15;8.60;82.20
84276;DHT22;74432;51.212;3.254;2023-12-20T03:35:41;8.50;82.60
84276;DHT22;74432;51.212;3.254;2023-12-20T03:38:07;8.50;82.80
84276;DHT22;74432;51.212;3.254;2023-12-20T03:40:32;8.50;83.00
84276;DHT22;74432;51.212;3.254;2023-12-20T03:42:58;8.50;82.60
84276;DHT22;74432;51.212;3.254;2023-12-20T03:45:24;8.50;83.10
84276;DHT22;74432;51.212;3.254;2023-12-20T03:47:50;8.50;81.90
84276;DHT22;74432;51.212;3.254;2023-12-20T03:50:21;8.50;82.30
84276;DHT22;74432;51.212;3.254;2023-12-20T03:52:47;8.50;81.30
84276;DHT22;74432;51.212;3.254;2023-12-20T03:55:13;8.40;81.30
84276;DHT22;74432;51.212;3.254;2023-12-20T03:57:38;8.40;80.70
84276;DHT22;74432;51.212;3.254;2023-12-20T04:00:05;8.40;81.00
84276;DHT22;74432;51.212;3.254;2023-12-20T04:02:34;8.50;80.60
84276;DHT22;74432;51.212;3.254;2023-12-20T04:05:00;8.50;80.00
84276;DHT22;74432;51.212;3.254;2023-12-20T04:07:25;8.40;79.80
84276;DHT22;74432;51.212;3.254;2023-12-20T04:09:51;8.30;80.30
84276;DHT22;74432;51.212;3.254;2023-12-20T04:12:17;8.30;80.50
84276;DHT22;74432;51.212;3.254;2023-12-20T04:14:42;8.30;80.70
84276;DHT22;74432;51.212;3.254;2023-12-20T04:17:08;8.30;81.10
84276;DHT22;74432;51.212;3.254;2023-12-20T04:19:34;8.40;80.80
84276;DHT22;74432;51.212;3.254;2023-12-20T04:21:59;8.30;79.60
84276;DHT22;74432;51.212;3.254;2023-12-20T04:24:25;8.30;79.60
84276;DHT22;74432;51.212;3.254;2023-12-20T04:26:51;8.30;79.60
84276;DHT22;74432;51.212;3.254;2023-12-20T04:29:17;8.20;79.50
84276;DHT22;74432;51.212;3.254;2023-12-20T04:31:42;8.20;79.80
84276;DHT22;74432;51.212;3.254;2023-12-20T04:34:08;8.20;80.40
84276;DHT22;74432;51.212;3.254;2023-12-20T04:36:34;8.20;80.50
84276;DHT22;74432;51.212;3.254;2023-12-20T04:38:59;8.30;80.70
84276;DHT22;74432;51.212;3.254;2023-12-20T04:41:25;8.20;81.20
84276;DHT22;74432;51.212;3.254;2023-12-20T04:43:51;8.20;80.90
84276;DHT22;74432;51.212;3.254;2023-12-20T04:46:16;8.20;81.50
84276;DHT22;74432;51.212;3.254;2023-12-20T04:48:42;8.20;81.40
84276;DHT22;74432;51.212;3.254;2023-12-20T04:51:07;8.20;80.90
84276;DHT22;74432;51.212;3.254;2023-12-20T04:53:33;8.20;80.50
84276;DHT22;74432;51.212;3.254;2023-12-20T04:55:59;8.20;80.20
84276;DHT22;74432;51.212;3.254;2023-12-20T04:58:24;8.20;80.70
84276;DHT22;74432;51.212;3.254;2023-12-20T05:00:50;8.20;81.00
84276;DHT22;74432;51.212;3.254;2023-12-20T05:03:16;8.20;80.90
84276;DHT22;74432;51.212;3.254;2023-12-20T05:05:42;8.20;80.90
84276;DHT22;74432;51.212;3.254;2023-12-20T05:08:07;8.30;81.10
84276;DHT22;74432;51.212;3.254;2023-12-20T05:10:33;8.40;81.10
84276;DHT22;74432;51.212;3.254;2023-12-20T05:12:59;8.40;81.40
84276;DHT22;74432;51.212;3.254;2023-12-20T05:15:25;8.40;81.60
84276;DHT22;74432;51.212;3.254;2023-12-20T05:17:50;8.40;81.70
84276;DHT22;74432;51.212;3.254;2023-12-20T05:20:16;8.30;82.10
84276;DHT22;74432;51.212;3.254;2023-12-20T05:22:42;8.30;82.00
84276;DHT22;74432;51.212;3.254;2023-12-20T05:25:07;8.40;81.80
84276;DHT22;74432;51.212;3.254;2023-12-20T05:27:33;8.30;81.50
84276;DHT22;74432;51.212;3.254;2023-12-20T05:29:59;8.30;82.10
84276;DHT22;74432;51.212;3.254;2023-12-20T05:32:25;8.20;82.10
84276;DHT22;74432;51.212;3.254;2023-12-20T05:34:50;8.30;82.10
84276;DHT22;74432;51.212;3.254;2023-12-20T05:37:16;8.20;82.30
84276;DHT22;74432;51.212;3.254;2023-12-20T05:39:42;8.20;81.50
84276;DHT22;74432;51.212;3.254;2023-12-20T05:42:07;8.30;81.20
84276;DHT22;74432;51.212;3.254;2023-12-20T05:44:33;8.30;81.00
84276;DHT22;74432;51.212;3.254;2023-12-20T05:46:59;8.30;81.10
84276;DHT22;74432;51.212;3.254;2023-12-20T05:49:24;8.30;81.20
84276;DHT22;74432;51.212;3.254;2023-12-20T05:51:50;8.30;81.10
84276;DHT22;74432;51.212;3.254;2023-12-20T05:54:16;8.20;81.80
84276;DHT22;74432;51.212;3.254;2023-12-20T05:56:42;8.20;81.90
84276;DHT22;74432;51.212;3.254;2023-12-20T05:59:08;8.30;82.00
84276;DHT22;74432;51.212;3.254;2023-12-20T06:01:33;8.20;82.00
84276;DHT22;74432;51.212;3.254;2023-12-20T06:03:59;8.30;81.70
84276;DHT22;74432;51.212;3.254;2023-12-20T06:06:25;8.30;81.40
84276;DHT22;74432;51.212;3.254;2023-12-20T06:08:50;8.20;81.50
84276;DHT22;74432;51.212;3.254;2023-12-20T06:11:16;8.30;81.70
84276;DHT22;74432;51.212;3.254;2023-12-20T06:13:42;8.20;81.90
84276;DHT22;74432;51.212;3.254;2023-12-20T06:16:07;8.20;82.00
84276;DHT22;74432;51.212;3.254;2023-12-20T06:18:33;8.20;82.20
84276;DHT22;74432;51.212;3.254;2023-12-20T06:20:59;8.20;82.30
84276;DHT22;74432;51.212;3.254;2023-12-20T06:23:24;8.20;82.00
84276;DHT22;74432;51.212;3.254;2023-12-20T06:25:50;8.20;82.20
84276;DHT22;74432;51.212;3.254;2023-12-20T06:28:16;8.10;82.30
84276;DHT22;74432;51.212;3.254;2023-12-20T06:30:41;8.10;82.10
84276;DHT22;74432;51.212;3.254;2023-12-20T06:33:07;8.10;82.20
84276;DHT22;74432;51.212;3.254;2023-12-20T06:35:35;8.10;82.10
84276;DHT22;74432;51.212;3.254;2023-12-20T06:38:00;8.10;83.50
84276;DHT22;74432;51.212;3.254;2023-12-20T06:40:26;8.10;82.40
84276;DHT22;74432;51.212;3.254;2023-12-20T06:42:52;8.10;82.30
84276;DHT22;74432;51.212;3.254;2023-12-20T06:45:18;8.20;82.20
84276;DHT22;74432;51.212;3.254;2023-12-20T06:47:43;8.10;83.00
84276;DHT22;74432;51.212;3.254;2023-12-20T06:50:09;8.10;82.80
84276;DHT22;74432;51.212;3.254;2023-12-20T06:52:35;8.00;83.00
84276;DHT22;74432;51.212;3.254;2023-12-20T06:55:01;8.00;83.20
84276;DHT22;74432;51.212;3.254;2023-12-20T06:57:26;8.10;83.40
84276;DHT22;74432;51.212;3.254;2023-12-20T06:59:53;8.10;83.00
84276;DHT22;74432;51.212;3.254;2023-12-20T07:02:19;8.10;83.00
84276;DHT22;74432;51.212;3.254;2023-12-20T07:04:44;8.10;83.20
84276;DHT22;74432;51.212;3.254;2023-12-20T07:07:10;8.10;83.90
84276;DHT22;74432;51.212;3.254;2023-12-20T07:09:36;8.00;83.70
84276;DHT22;74432;51.212;3.254;2023-12-20T07:12:02;8.10;83.70
84276;DHT22;74432;51.212;3.254;2023-12-20T07:14:28;8.10;83.30
84276;DHT22;74432;51.212;3.254;2023-12-20T07:16:54;8.10;83.60
84276;DHT22;74432;51.212;3.254;2023-12-20T07:19:20;8.10;83.30
84276;DHT22;74432;51.212;3.254;2023-12-20T07:21:46;8.20;83.10
84276;DHT22;74432;51.212;3.254;2023-12-20T07:24:12;8.20;82.90
84276;DHT22;74432;51.212;3.254;2023-12-20T07:26:38;8.20;83.10
84276;DHT22;74432;51.212;3.254;2023-12-20T07:29:04;8.20;82.80
84276;DHT22;74432;51.212;3.254;2023-12-20T07:31:30;8.20;83.00
84276;DHT22;74432;51.212;3.254;2023-12-20T07:33:56;8.10;83.20
84276;DHT22;74432;51.212;3.254;2023-12-20T07:36:22;8.20;83.30
84276;DHT22;74432;51.212;3.254;2023-12-20T07:38:47;8.20;82.90
84276;DHT22;74432;51.212;3.254;2023-12-20T07:41:13;8.20;82.90
84276;DHT22;74432;51.212;3.254;2023-12-20T07:43:41;8.20;82.50
84276;DHT22;74432;51.212;3.254;2023-12-20T07:46:07;8.20;82.90
84276;DHT22;74432;51.212;3.254;2023-12-20T07:48:35;8.20;82.80
84276;DHT22;74432;51.212;3.254;2023-12-20T07:51:01;8.20;82.80
84276;DHT22;74432;51.212;3.254;2023-12-20T07:53:27;8.20;82.70
84276;DHT22;74432;51.212;3.254;2023-12-20T07:55:52;8.20;82.60
84276;DHT22;74432;51.212;3.254;2023-12-20T07:58:19;8.20;82.80
84276;DHT22;74432;51.212;3.254;2023-12-20T08:00:44;8.30;82.50
84276;DHT22;74432;51.212;3.254;2023-12-20T08:03:10;8.20;82.80
84276;DHT22;74432;51.212;3.254;2023-12-20T08:05:36;8.20;82.90
84276;DHT22;74432;51.212;3.254;2023-12-20T08:08:02;8.20;83.20
84276;DHT22;74432;51.212;3.254;2023-12-20T08:10:28;8.20;83.00
84276;DHT22;74432;51.212;3.254;2023-12-20T08:12:55;8.30;82.80
84276;DHT22;74432;51.212;3.254;2023-12-20T08:15:21;8.30;82.80
84276;DHT22;74432;51.212;3.254;2023-12-20T08:17:46;8.30;82.80
84276;DHT22;74432;51.212;3.254;2023-12-20T08:20:12;8.40;82.60
84276;DHT22;74432;51.212;3.254;2023-12-20T08:22:38;8.50;82.50
84276;DHT22;74432;51.212;3.254;2023-12-20T08:25:04;8.60;81.70
84276;DHT22;74432;51.212;3.254;2023-12-20T08:27:30;8.50;82.40
84276;DHT22;74432;51.212;3.254;2023-12-20T08:29:57;8.60;81.70
84276;DHT22;74432;51.212;3.254;2023-12-20T08:32:25;8.60;81.70
84276;DHT22;74432;51.212;3.254;2023-12-20T08:34:52;8.60;81.40
84276;DHT22;74432;51.212;3.254;2023-12-20T08:37:18;8.70;81.60
84276;DHT22;74432;51.212;3.254;2023-12-20T08:39:43;8.80;81.10
84276;DHT22;74432;51.212;3.254;2023-12-20T08:42:09;8.80;81.10
84276;DHT22;74432;51.212;3.254;2023-12-20T08:44:35;8.90;81.00
84276;DHT22;74432;51.212;3.254;2023-12-20T08:47:01;9.00;80.40
84276;DHT22;74432;51.212;3.254;2023-12-20T08:49:27;8.90;81.40
84276;DHT22;74432;51.212;3.254;2023-12-20T08:51:53;8.90;81.10
84276;DHT22;74432;51.212;3.254;2023-12-20T08:54:19;8.90;81.40
84276;DHT22;74432;51.212;3.254;2023-12-20T08:56:45;8.90;81.00
84276;DHT22;74432;51.212;3.254;2023-12-20T08:59:11;8.90;81.40
84276;DHT22;74432;51.212;3.254;2023-12-20T09:01:37;9.00;81.50
84276;DHT22;74432;51.212;3.254;2023-12-20T09:04:03;9.10;81.40
84276;DHT22;74432;51.212;3.254;2023-12-20T09:06:28;9.00;81.20
84276;DHT22;74432;51.212;3.254;2023-12-20T09:08:54;9.10;81.50
84276;DHT22;74432;51.212;3.254;2023-12-20T09:11:20;9.10;80.90
84276;DHT22;74432;51.212;3.254;2023-12-20T09:13:45;9.20;80.90
84276;DHT22;74432;51.212;3.254;2023-12-20T09:16:11;9.20;81.00
84276;DHT22;74432;51.212;3.254;2023-12-20T09:18:38;9.20;80.60
84276;DHT22;74432;51.212;3.254;2023-12-20T09:21:04;9.30;80.00
84276;DHT22;74432;51.212;3.254;2023-12-20T09:23:30;9.30;80.20
84276;DHT22;74432;51.212;3.254;2023-12-20T09:25:55;9.20;80.00
84276;DHT22;74432;51.212;3.254;2023-12-20T09:28:21;9.10;80.60
84276;DHT22;74432;51.212;3.254;2023-12-20T09:30:47;9.00;81.20
84276;DHT22;74432;51.212;3.254;2023-12-20T09:33:14;9.20;81.00
84276;DHT22;74432;51.212;3.254;2023-12-20T09:35:39;9.20;80.50
84276;DHT22;74432;51.212;3.254;2023-12-20T09:38:05;9.10;80.80
84276;DHT22;74432;51.212;3.254;2023-12-20T09:40:32;9.00;81.40
84276;DHT22;74432;51.212;3.254;2023-12-20T09:43:11;9.10;80.80
84276;DHT22;74432;51.212;3.254;2023-12-20T09:45:39;9.20;80.50
84276;DHT22;74432;51.212;3.254;2023-12-20T09:48:07;9.20;81.00
84276;DHT22;74432;51.212;3.254;2023-12-20T09:50:34;9.20;80.70
84276;DHT22;74432;51.212;3.254;2023-12-20T09:53:02;9.10;80.90
84276;DHT22;74432;51.212;3.254;2023-12-20T09:55:31;9.10;81.40
84276;DHT22;74432;51.212;3.254;2023-12-20T09:57:59;9.10;81.40
84276;DHT22;74432;51.212;3.254;2023-12-20T10:00:24;9.10;81.70
84276;DHT22;74432;51.212;3.254;2023-12-20T10:02:59;9.10;82.00
84276;DHT22;74432;51.212;3.254;2023-12-20T10:05:34;9.20;82.20
84276;DHT22;74432;51.212;3.254;2023-12-20T10:08:00;9.30;81.50
84276;DHT22;74432;51.212;3.254;2023-12-20T10:10:27;9.40;81.10
84276;DHT22;74432;51.212;3.254;2023-12-20T10:13:07;9.40;81.00
84276;DHT22;74432;51.212;3.254;2023-12-20T10:15:35;9.40;81.10
84276;DHT22;74432;51.212;3.254;2023-12-20T10:18:02;9.30;81.50
84276;DHT22;74432;51.212;3.254;2023-12-20T10:20:28;9.30;81.50
84276;DHT22;74432;51.212;3.254;2023-12-20T10:22:55;9.40;81.70
84276;DHT22;74432;51.212;3.254;2023-12-20T10:25:21;9.50;80.50
84276;DHT22;74432;51.212;3.254;2023-12-20T10:27:47;9.50;80.70
84276;DHT22;74432;51.212;3.254;2023-12-20T10:30:14;9.60;80.40
84276;DHT22;74432;51.212;3.254;2023-12-20T10:32:40;9.50;80.70
84276;DHT22;74432;51.212;3.254;2023-12-20T10:35:06;9.60;80.90
84276;DHT22;74432;51.212;3.254;2023-12-20T10:37:36;9.60;80.90
84276;DHT22;74432;51.212;3.254;2023-12-20T10:40:04;9.60;80.70
84276;DHT22;74432;51.212;3.254;2023-12-20T10:42:31;9.60;81.10
84276;DHT22;74432;51.212;3.254;2023-12-20T10:44:59;9.70;80.90
84276;DHT22;74432;51.212;3.254;2023-12-20T10:47:25;9.80;81.10
84276;DHT22;74432;51.212;3.254;2023-12-20T10:49:52;9.80;80.50
84276;DHT22;74432;51.212;3.254;2023-12-20T10:52:19;9.90;80.70
84276;DHT22;74432;51.212;3.254;2023-12-20T10:54:48;9.90;79.70
84276;DHT22;74432;51.212;3.254;2023-12-20T10:57:14;10.00;80.00
84276;DHT22;74432;51.212;3.254;2023-12-20T10:59:41;10.00;79.20
84276;DHT22;74432;51.212;3.254;2023-12-20T11:02:08;10.00;79.30
84276;DHT22;74432;51.212;3.254;2023-12-20T11:04:47;10.10;79.50
84276;DHT22;74432;51.212;3.254;2023-12-20T11:07:33;10.20;79.10
84276;DHT22;74432;51.212;3.254;2023-12-20T11:10:10;10.20;78.40
84276;DHT22;74432;51.212;3.254;2023-12-20T11:12:49;10.10;78.40
84276;DHT22;74432;51.212;3.254;2023-12-20T11:15:18;10.20;78.30
84276;DHT22;74432;51.212;3.254;2023-12-20T11:17:45;10.20;77.90
84276;DHT22;74432;51.212;3.254;2023-12-20T11:20:13;10.20;78.10
84276;DHT22;74432;51.212;3.254;2023-12-20T11:22:40;10.20;78.40
84276;DHT22;74432;51.212;3.254;2023-12-20T11:25:17;10.20;78.10
84276;DHT22;74432;51.212;3.254;2023-12-20T11:27:43;10.20;78.30
84276;DHT22;74432;51.212;3.254;2023-12-20T11:30:09;10.20;78.30
84276;DHT22;74432;51.212;3.254;2023-12-20T11:32:36;10.20;79.30
84276;DHT22;74432;51.212;3.254;2023-12-20T11:35:17;10.20;78.20
84276;DHT22;74432;51.212;3.254;2023-12-20T11:37:45;10.10;78.10
84276;DHT22;74432;51.212;3.254;2023-12-20T11:40:16;10.00;78.40
84276;DHT22;74432;51.212;3.254;2023-12-20T11:42:49;10.10;78.40
84276;DHT22;74432;51.212;3.254;2023-12-20T11:45:19;10.10;78.70
84276;DHT22;74432;51.212;3.254;2023-12-20T11:47:51;10.20;78.50
84276;DHT22;74432;51.212;3.254;2023-12-20T11:50:21;10.40;77.90
84276;DHT22;74432;51.212;3.254;2023-12-20T11:52:52;10.30;77.50
84276;DHT22;74432;51.212;3.254;2023-12-20T11:55:19;10.40;77.70
84276;DHT22;74432;51.212;3.254;2023-12-20T11:57:45;10.50;77.90
84276;DHT22;74432;51.212;3.254;2023-12-20T12:00:11;10.50;77.20
84276;DHT22;74432;51.212;3.254;2023-12-20T12:02:37;10.50;77.00
84276;DHT22;74432;51.212;3.254;2023-12-20T12:05:02;10.50;77.20
84276;DHT22;74432;51.212;3.254;2023-12-20T12:07:31;10.50;77.00
84276;DHT22;74432;51.212;3.254;2023-12-20T12:09:57;10.50;77.50
84276;DHT22;74432;51.212;3.254;2023-12-20T12:12:23;10.50;77.30
84276;DHT22;74432;51.212;3.254;2023-12-20T12:14:50;10.50;76.80
84276;DHT22;74432;51.212;3.254;2023-12-20T12:17:16;10.50;77.30
84276;DHT22;74432;51.212;3.254;2023-12-20T12:19:43;10.50;76.80
84276;DHT22;74432;51.212;3.254;2023-12-20T12:22:13;10.50;77.30
84276;DHT22;74432;51.212;3.254;2023-12-20T12:24:44;10.50;77.10
84276;DHT22;74432;51.212;3.254;2023-12-20T12:27:11;10.60;76.70
84276;DHT22;74432;51.212;3.254;2023-12-20T12:29:37;10.50;77.40
84276;DHT22;74432;51.212;3.254;2023-12-20T12:32:07;10.60;76.50
84276;DHT22;74432;51.212;3.254;2023-12-20T12:34:37;10.50;77.20
84276;DHT22;74432;51.212;3.254;2023-12-20T12:37:04;10.50;77.20
84276;DHT22;74432;51.212;3.254;2023-12-20T12:39:30;10.60;76.70
84276;DHT22;74432;51.212;3.254;2023-12-20T12:41:56;10.60;77.20
84276;DHT22;74432;51.212;3.254;2023-12-20T12:44:22;10.60;77.00
84276;DHT22;74432;51.212;3.254;2023-12-20T12:46:52;10.50;77.30
84276;DHT22;74432;51.212;3.254;2023-12-20T12:49:20;10.50;77.90
84276;DHT22;74432;51.212;3.254;2023-12-20T12:51:47;10.50;77.60
84276;DHT22;74432;51.212;3.254;2023-12-20T12:54:12;10.60;77.10
84276;DHT22;74432;51.212;3.254;2023-12-20T12:56:39;10.70;77.70
84276;DHT22;74432;51.212;3.254;2023-12-20T12:59:05;10.60;77.50
84276;DHT22;74432;51.212;3.254;2023-12-20T13:01:31;10.60;77.40
84276;DHT22;74432;51.212;3.254;2023-12-20T13:03:57;10.60;77.20
84276;DHT22;74432;51.212;3.254;2023-12-20T13:06:23;10.70;77.10
84276;DHT22;74432;51.212;3.254;2023-12-20T13:08:51;10.70;76.90
84276;DHT22;74432;51.212;3.254;2023-12-20T13:11:16;10.60;77.40
84276;DHT22;74432;51.212;3.254;2023-12-20T13:13:42;10.70;77.60
84276;DHT22;74432;51.212;3.254;2023-12-20T13:16:08;10.70;77.20
84276;DHT22;74432;51.212;3.254;2023-12-20T13:18:33;10.70;76.90
84276;DHT22;74432;51.212;3.254;2023-12-20T13:20:59;10.70;76.90
84276;DHT22;74432;51.212;3.254;2023-12-20T13:23:25;10.70;77.40
84276;DHT22;74432;51.212;3.254;2023-12-20T13:25:50;10.70;77.60
84276;DHT22;74432;51.212;3.254;2023-12-20T13:28:16;10.70;78.00
84276;DHT22;74432;51.212;3.254;2023-12-20T13:30:42;10.70;78.10
84276;DHT22;74432;51.212;3.254;2023-12-20T13:33:08;10.70;77.70
84276;DHT22;74432;51.212;3.254;2023-12-20T13:35:34;10.70;78.00
84276;DHT22;74432;51.212;3.254;2023-12-20T13:38:00;10.80;78.30
84276;DHT22;74432;51.212;3.254;2023-12-20T13:40:26;10.80;77.40
84276;DHT22;74432;51.212;3.254;2023-12-20T13:42:52;10.80;77.50
84276;DHT22;74432;51.212;3.254;2023-12-20T13:45:18;10.90;77.40
84276;DHT22;74432;51.212;3.254;2023-12-20T13:47:43;10.80;77.50
84276;DHT22;74432;51.212;3.254;2023-12-20T13:50:09;10.80;77.60
84276;DHT22;74432;51.212;3.254;2023-12-20T13:52:35;10.70;77.90
84276;DHT22;74432;51.212;3.254;2023-12-20T13:55:01;10.70;78.00
84276;DHT22;74432;51.212;3.254;2023-12-20T13:57:27;10.60;78.20
84276;DHT22;74432;51.212;3.254;2023-12-20T13:59:55;10.50;78.40
84276;DHT22;74432;51.212;3.254;2023-12-20T14:02:22;10.60;78.40
84276;DHT22;74432;51.212;3.254;2023-12-20T14:04:48;10.60;78.20
84276;DHT22;74432;51.212;3.254;2023-12-20T14:07:13;10.60;78.50
84276;DHT22;74432;51.212;3.254;2023-12-20T14:09:40;10.60;78.30
84276;DHT22;74432;51.212;3.254;2023-12-20T14:12:11;10.60;78.50
84276;DHT22;74432;51.212;3.254;2023-12-20T14:14:37;10.60;78.80
84276;DHT22;74432;51.212;3.254;2023-12-20T14:17:03;10.50;79.00
84276;DHT22;74432;51.212;3.254;2023-12-20T14:19:29;10.50;78.80
84276;DHT22;74432;51.212;3.254;2023-12-20T14:21:55;10.60;79.00
84276;DHT22;74432;51.212;3.254;2023-12-20T14:24:20;10.50;79.00
84276;DHT22;74432;51.212;3.254;2023-12-20T14:26:46;10.60;79.70
84276;DHT22;74432;51.212;3.254;2023-12-20T14:29:12;10.50;80.00
84276;DHT22;74432;51.212;3.254;2023-12-20T14:31:38;10.50;80.40
84276;DHT22;74432;51.212;3.254;2023-12-20T14:34:04;10.50;80.30
84276;DHT22;74432;51.212;3.254;2023-12-20T14:36:30;10.40;80.90
84276;DHT22;74432;51.212;3.254;2023-12-20T14:38:56;10.40;81.40
84276;DHT22;74432;51.212;3.254;2023-12-20T14:41:22;10.40;81.00
84276;DHT22;74432;51.212;3.254;2023-12-20T14:43:53;10.40;80.60
84276;DHT22;74432;51.212;3.254;2023-12-20T14:46:19;10.40;81.10
84276;DHT22;74432;51.212;3.254;2023-12-20T14:48:44;10.30;81.20
84276;DHT22;74432;51.212;3.254;2023-12-20T14:51:10;10.30;81.50
84276;DHT22;74432;51.212;3.254;2023-12-20T14:53:40;10.30;81.10
84276;DHT22;74432;51.212;3.254;2023-12-20T14:56:06;10.20;81.60
84276;DHT22;74432;51.212;3.254;2023-12-20T14:58:32;10.20;81.80
84276;DHT22;74432;51.212;3.254;2023-12-20T15:00:58;10.30;81.60
84276;DHT22;74432;51.212;3.254;2023-12-20T15:03:23;10.30;81.40
84276;DHT22;74432;51.212;3.254;2023-12-20T15:05:49;10.30;81.50
84276;DHT22;74432;51.212;3.254;2023-12-20T15:08:15;10.40;81.10
84276;DHT22;74432;51.212;3.254;2023-12-20T15:10:41;10.40;81.40
84276;DHT22;74432;51.212;3.254;2023-12-20T15:13:07;10.40;81.70
84276;DHT22;74432;51.212;3.254;2023-12-20T15:15:33;10.40;81.50
84276;DHT22;74432;51.212;3.254;2023-12-20T15:18:01;10.40;81.40
84276;DHT22;74432;51.212;3.254;2023-12-20T15:20:30;10.40;81.70
84276;DHT22;74432;51.212;3.254;2023-12-20T15:22:58;10.40;81.80
84276;DHT22;74432;51.212;3.254;2023-12-20T15:25:30;10.50;81.60
84276;DHT22;74432;51.212;3.254;2023-12-20T15:27:56;10.40;82.10
84276;DHT22;74432;51.212;3.254;2023-12-20T15:30:22;10.40;82.20
84276;DHT22;74432;51.212;3.254;2023-12-20T15:32:49;10.40;82.20
84276;DHT22;74432;51.212;3.254;2023-12-20T15:35:15;10.40;82.40
84276;DHT22;74432;51.212;3.254;2023-12-20T15:37:41;10.40;82.70